createdAt,value
2023-05-10T00:01:05.935Z,70.73
2023-05-10T00:04:07.893Z,70.47
2023-05-10T00:07:09.744Z,70.24
2023-05-10T00:10:12.215Z,70.01
2023-05-10T00:13:14.209Z,69.88
2023-05-10T00:16:16.197Z,69.73
2023-05-10T00:19:17.937Z,69.68
2023-05-10T00:22:19.715Z,69.61
2023-05-10T00:25:22.654Z,69.69
2023-05-10T00:28:24.570Z,69.98
2023-05-10T00:31:26.463Z,69.84
2023-05-10T00:34:28.263Z,69.94
2023-05-10T00:37:30.137Z,70.22
2023-05-10T00:40:31.996Z,70.54
2023-05-10T00:43:33.734Z,70.91
2023-05-10T00:46:35.862Z,71.14
2023-05-10T00:49:37.845Z,71.28
2023-05-10T00:52:39.630Z,71.39
2023-05-10T00:55:41.491Z,71.58
2023-05-10T00:58:43.610Z,71.89
2023-05-10T01:01:48.579Z,72.20
2023-05-10T01:04:50.897Z,72.48
2023-05-10T01:07:52.666Z,72.81
2023-05-10T01:10:54.999Z,72.89
2023-05-10T01:13:57.686Z,73.22
2023-05-10T01:16:59.849Z,73.47
2023-05-10T01:20:01.824Z,73.79
2023-05-10T01:23:27.700Z,74.06
2023-05-10T01:26:50.882Z,74.26
2023-05-10T01:30:18.184Z,74.55
2023-05-10T01:33:32.002Z,75.04
2023-05-10T01:36:42.774Z,75.03
2023-05-10T01:39:48.415Z,75.07
2023-05-10T01:42:53.484Z,75.15
2023-05-10T01:46:17.828Z,75.22
2023-05-10T01:49:27.556Z,75.55
2023-05-10T01:52:34.700Z,75.63
2023-05-10T01:55:41.121Z,76.32
2023-05-10T01:58:46.570Z,76.16
2023-05-10T02:01:48.921Z,76.05
2023-05-10T02:04:52.354Z,75.90
2023-05-10T02:07:54.803Z,75.95
2023-05-10T02:10:57.321Z,76.03
2023-05-10T02:14:00.127Z,76.18
2023-05-10T02:17:03.458Z,76.05
2023-05-10T02:20:07.778Z,76.24
2023-05-10T02:23:09.888Z,76.47
2023-05-10T02:26:13.008Z,76.58
2023-05-10T02:29:15.584Z,76.53
2023-05-10T02:32:17.663Z,76.60
2023-05-10T02:35:20.297Z,76.50
2023-05-10T02:38:23.839Z,76.51
2023-05-10T02:41:27.348Z,76.32
2023-05-10T02:44:32.023Z,76.60
2023-05-10T02:47:34.021Z,76.63
2023-05-10T02:50:36.829Z,76.67
2023-05-10T02:53:39.847Z,76.66
2023-05-10T02:56:44.336Z,76.92
2023-05-10T02:59:46.440Z,77.19
2023-05-10T03:02:48.347Z,77.45
2023-05-10T03:05:50.173Z,77.68
2023-05-10T03:08:51.941Z,77.96
2023-05-10T03:12:03.877Z,78.21
2023-05-10T03:15:23.620Z,78.52
2023-05-10T03:19:03.245Z,78.65
2023-05-10T03:22:07.061Z,79.31
2023-05-10T03:25:12.006Z,79.56
2023-05-10T03:28:15.782Z,79.83
2023-05-10T03:31:18.677Z,79.58
2023-05-10T03:34:31.495Z,79.85
2023-05-10T03:37:33.243Z,80.62
2023-05-10T03:40:35.132Z,81.13
2023-05-10T03:43:37.584Z,81.51
2023-05-10T03:46:39.385Z,81.89
2023-05-10T03:49:41.594Z,82.26
2023-05-10T03:52:43.368Z,82.92
2023-05-10T03:55:45.851Z,83.26
2023-05-10T03:58:48.012Z,83.74
2023-05-10T04:06:13.329Z,85.09
2023-05-10T04:09:15.128Z,84.85
2023-05-10T04:12:16.870Z,84.85
2023-05-10T04:15:18.772Z,85.26
2023-05-10T04:18:20.669Z,85.30
2023-05-10T04:21:22.464Z,85.67
2023-05-10T04:24:24.459Z,85.65
2023-05-10T04:27:26.288Z,85.31
2023-05-10T04:30:30.176Z,85.61
2023-05-10T04:33:32.087Z,85.50
2023-05-10T04:36:36.317Z,85.57
2023-05-10T04:39:39.630Z,85.57
2023-05-10T04:42:42.696Z,85.50
2023-05-10T04:45:44.438Z,86.11
2023-05-10T04:48:46.241Z,85.97
2023-05-10T04:51:47.980Z,85.76
2023-05-10T04:54:49.782Z,85.01
2023-05-10T04:57:51.704Z,82.80
2023-05-10T05:00:53.465Z,82.36
2023-05-10T05:03:55.536Z,82.65
2023-05-10T05:06:57.414Z,83.15
2023-05-10T05:09:59.177Z,83.34
2023-05-10T05:13:00.959Z,83.23
2023-05-10T05:16:03.741Z,82.88
2023-05-10T05:19:06.415Z,82.69
2023-05-10T05:22:09.636Z,82.77
2023-05-10T05:25:12.668Z,82.43
2023-05-10T05:28:14.491Z,82.05
2023-05-10T05:31:16.439Z,81.92
2023-05-10T05:34:18.500Z,80.85
2023-05-10T05:37:22.339Z,79.23
2023-05-10T05:40:24.248Z,78.82
2023-05-10T05:43:26.389Z,78.91
2023-05-10T05:46:28.178Z,79.05
2023-05-10T05:49:30.171Z,79.03
2023-05-10T05:52:32.038Z,78.73
2023-05-10T05:55:33.803Z,78.78
2023-05-10T05:58:35.601Z,78.62
2023-05-10T06:01:37.439Z,77.99
2023-05-10T06:04:41.568Z,76.91
2023-05-10T06:07:47.021Z,75.63
2023-05-10T06:10:48.887Z,73.81
2023-05-10T06:13:50.759Z,73.15
2023-05-10T06:16:52.659Z,70.65
2023-05-10T06:19:54.401Z,70.56
2023-05-10T06:22:56.182Z,70.39
2023-05-10T06:25:57.918Z,70.48
2023-05-10T06:28:59.716Z,68.98
2023-05-10T06:32:01.573Z,68.14
2023-05-10T06:35:03.639Z,67.77
2023-05-10T06:38:05.569Z,66.14
2023-05-10T06:41:07.368Z,66.51
2023-05-10T06:44:09.460Z,65.21
2023-05-10T06:47:11.291Z,64.90
2023-05-10T06:50:13.074Z,65.77
2023-05-10T06:53:14.959Z,65.62
2023-05-10T06:56:31.117Z,66.54
2023-05-10T06:59:33.171Z,64.20
2023-05-10T07:02:35.015Z,63.17
2023-05-10T07:05:37.126Z,63.42
2023-05-10T07:08:38.925Z,61.61
2023-05-10T07:11:40.705Z,59.21
2023-05-10T07:14:42.715Z,61.42
2023-05-10T07:17:45.894Z,61.57
2023-05-10T07:20:47.986Z,59.72
2023-05-10T07:23:50.510Z,58.57
2023-05-10T07:26:52.405Z,59.66
2023-05-10T07:29:54.192Z,58.86
2023-05-10T07:32:56.451Z,58.61
2023-05-10T07:35:58.463Z,59.03
2023-05-10T07:39:00.355Z,59.84
2023-05-10T07:42:02.096Z,59.11
2023-05-10T07:45:04.183Z,60.63
2023-05-10T07:48:06.241Z,59.63
2023-05-10T07:51:10.373Z,58.77
2023-05-10T07:54:12.354Z,58.54
2023-05-10T07:57:16.370Z,58.42
2023-05-10T08:00:19.708Z,58.87
2023-05-10T08:03:21.495Z,58.84
2023-05-10T08:06:23.407Z,58.71
2023-05-10T08:09:25.569Z,58.70
2023-05-10T08:12:27.356Z,58.20
2023-05-10T08:15:29.147Z,60.29
2023-05-10T08:18:30.916Z,59.02
2023-05-10T08:21:32.722Z,60.46
2023-05-10T08:24:39.156Z,60.88
2023-05-10T08:27:41.285Z,60.50
2023-05-10T08:30:43.070Z,59.70
2023-05-10T08:33:45.032Z,59.12
2023-05-10T08:36:46.720Z,58.30
2023-05-10T08:39:49.015Z,58.06
2023-05-10T08:43:00.401Z,57.14
2023-05-10T08:46:05.105Z,55.52
2023-05-10T08:49:11.106Z,54.94
2023-05-10T08:52:14.276Z,56.61
2023-05-10T08:55:16.997Z,56.22
2023-05-10T08:58:20.481Z,55.70
2023-05-10T09:01:22.583Z,55.63
2023-05-10T09:04:24.713Z,54.89
2023-05-10T09:07:26.727Z,54.67
2023-05-10T09:10:29.309Z,55.86
2023-05-10T09:13:31.326Z,54.49
2023-05-10T09:16:33.192Z,55.03
2023-05-10T09:19:35.070Z,55.89
2023-05-10T09:22:37.230Z,55.85
2023-05-10T09:25:39.731Z,56.11
2023-05-10T09:28:52.494Z,55.63
2023-05-10T09:31:57.225Z,55.60
2023-05-10T09:35:07.517Z,55.58
2023-05-10T09:38:09.474Z,56.45
2023-05-10T09:41:20.382Z,56.53
2023-05-10T09:44:22.148Z,56.12
2023-05-10T09:47:25.116Z,56.89
2023-05-10T09:50:27.640Z,55.99
2023-05-10T09:53:29.464Z,56.74
2023-05-10T09:56:36.483Z,54.71
2023-05-10T09:59:43.815Z,54.93
2023-05-10T10:03:06.523Z,54.54
2023-05-10T10:06:18.707Z,53.44
2023-05-10T10:09:28.679Z,52.21
2023-05-10T10:12:30.523Z,51.90
2023-05-10T10:15:34.025Z,51.68
2023-05-10T10:18:39.824Z,51.07
2023-05-10T10:21:41.685Z,49.97
2023-05-10T10:24:44.145Z,49.69
2023-05-10T10:27:57.870Z,48.98
2023-05-10T10:31:04.866Z,50.73
2023-05-10T10:34:08.150Z,50.85
2023-05-10T10:37:09.968Z,50.06
2023-05-10T10:40:44.076Z,50.32
2023-05-10T10:43:46.395Z,48.35
2023-05-10T10:47:13.292Z,48.54
2023-05-10T10:50:17.103Z,50.06
2023-05-10T10:53:18.988Z,48.02
2023-05-10T10:56:24.602Z,46.16
2023-05-10T10:59:29.421Z,47.83
2023-05-10T11:02:54.745Z,47.26
2023-05-10T11:05:59.709Z,46.76
2023-05-10T11:09:10.927Z,47.94
2023-05-10T11:12:13.953Z,46.92
2023-05-10T11:15:15.907Z,46.36
2023-05-10T11:18:19.865Z,46.06
2023-05-10T11:21:21.843Z,45.31
2023-05-10T11:24:24.204Z,45.43
2023-05-10T11:27:26.191Z,47.47
2023-05-10T11:30:28.120Z,46.57
2023-05-10T11:33:30.261Z,46.81
2023-05-10T11:36:36.900Z,44.86
2023-05-10T11:39:38.806Z,44.24
2023-05-10T11:42:40.750Z,46.39
2023-05-10T11:45:42.595Z,45.39
2023-05-10T11:48:44.709Z,44.27
2023-05-10T11:51:46.903Z,45.86
2023-05-10T11:54:53.374Z,45.53
2023-05-10T11:57:55.834Z,45.81
2023-05-10T12:00:58.316Z,46.01
2023-05-10T12:04:01.205Z,46.46
2023-05-10T12:07:03.366Z,45.61
2023-05-10T12:10:09.482Z,46.25
2023-05-10T12:13:16.389Z,46.01
2023-05-10T12:16:20.267Z,47.91
2023-05-10T12:19:22.263Z,46.98
2023-05-10T12:22:24.152Z,48.14
2023-05-10T12:25:31.924Z,47.61
2023-05-10T12:28:34.459Z,47.38
2023-05-10T12:31:53.085Z,47.62
2023-05-10T12:34:55.389Z,47.83
2023-05-10T12:37:57.174Z,47.39
2023-05-10T12:41:03.879Z,47.59
2023-05-10T12:44:05.819Z,47.55
2023-05-10T12:47:07.754Z,47.91
2023-05-10T12:50:09.947Z,48.80
2023-05-10T12:53:11.818Z,47.13
2023-05-10T12:56:13.543Z,47.05
2023-05-10T12:59:15.379Z,46.86
2023-05-10T13:02:19.103Z,46.67
2023-05-10T13:05:20.951Z,46.69
2023-05-10T13:08:22.789Z,46.87
2023-05-10T13:11:24.738Z,47.07
2023-05-10T13:14:26.684Z,47.24
2023-05-10T13:17:28.498Z,47.55
2023-05-10T13:20:30.320Z,46.95
2023-05-10T13:23:32.222Z,47.14
2023-05-10T13:26:34.481Z,47.11
2023-05-10T13:29:36.286Z,47.14
2023-05-10T13:32:38.331Z,47.19
2023-05-10T13:35:40.094Z,46.41
2023-05-10T13:38:41.948Z,46.28
2023-05-10T13:41:43.831Z,46.10
2023-05-10T13:44:46.703Z,46.78
2023-05-10T13:47:48.722Z,46.22
2023-05-10T13:50:50.691Z,46.27
2023-05-10T13:53:53.223Z,45.83
2023-05-10T13:56:55.250Z,46.58
2023-05-10T13:59:58.315Z,45.77
2023-05-10T14:03:00.532Z,45.08
2023-05-10T14:06:02.556Z,44.78
2023-05-10T14:09:04.931Z,45.40
2023-05-10T14:12:06.807Z,45.07
2023-05-10T14:15:11.503Z,45.25
2023-05-10T14:18:13.419Z,43.33
2023-05-10T14:21:16.393Z,43.54
2023-05-10T14:24:18.596Z,44.61
2023-05-10T14:27:20.519Z,44.26
2023-05-10T14:30:22.324Z,44.41
2023-05-10T14:33:24.068Z,44.84
2023-05-10T14:36:25.866Z,44.28
2023-05-10T14:39:30.572Z,44.57
2023-05-10T14:42:32.468Z,44.80
2023-05-10T14:45:34.546Z,44.76
2023-05-10T14:48:36.804Z,44.37
2023-05-10T14:51:38.647Z,43.58
2023-05-10T14:54:41.257Z,43.83
2023-05-10T14:57:43.198Z,44.93
2023-05-10T15:00:45.180Z,46.70
2023-05-10T15:03:47.503Z,48.81
2023-05-10T15:06:49.740Z,49.81
2023-05-10T15:09:52.826Z,50.40
2023-05-10T15:12:54.645Z,50.86
2023-05-10T15:15:56.750Z,49.31
2023-05-10T15:18:58.606Z,49.61
2023-05-10T15:22:00.496Z,49.23
2023-05-10T15:25:03.190Z,49.35
2023-05-10T15:28:05.393Z,49.36
2023-05-10T15:31:07.179Z,49.34
2023-05-10T15:34:09.166Z,48.18
2023-05-10T15:37:11.054Z,48.04
2023-05-10T15:40:13.109Z,47.96
2023-05-10T15:43:15.140Z,47.96
2023-05-10T15:46:16.985Z,47.96
2023-05-10T15:49:18.846Z,47.54
2023-05-10T15:52:21.641Z,47.23
2023-05-10T15:55:23.738Z,47.00
2023-05-10T15:58:25.808Z,47.72
2023-05-10T16:01:28.439Z,48.62
2023-05-10T16:04:31.288Z,48.97
2023-05-10T16:07:33.878Z,49.34
2023-05-10T16:10:35.673Z,50.29
2023-05-10T16:13:38.156Z,50.83
2023-05-10T16:16:40.292Z,50.68
2023-05-10T16:19:42.331Z,51.32
2023-05-10T16:22:44.892Z,52.08
2023-05-10T16:25:47.949Z,50.96
2023-05-10T16:28:49.780Z,51.36
2023-05-10T16:31:51.846Z,51.83
2023-05-10T16:34:53.897Z,51.91
2023-05-10T16:37:56.047Z,52.30
2023-05-10T16:40:57.840Z,51.79
2023-05-10T16:44:00.299Z,51.36
2023-05-10T16:47:03.180Z,51.17
2023-05-10T16:50:06.349Z,51.42
2023-05-10T16:53:08.148Z,51.90
2023-05-10T16:56:10.498Z,51.71
2023-05-10T16:59:12.192Z,51.42
2023-05-10T17:02:14.653Z,50.83
2023-05-10T17:05:16.767Z,50.48
2023-05-10T17:08:18.598Z,50.33
2023-05-10T17:11:21.873Z,50.62
2023-05-10T17:14:24.077Z,51.05
2023-05-10T17:17:25.909Z,51.39
2023-05-10T17:20:27.858Z,51.39
2023-05-10T17:23:30.450Z,51.75
2023-05-10T17:26:32.234Z,51.93
2023-05-10T17:29:34.064Z,51.87
2023-05-10T17:32:36.210Z,51.87
2023-05-10T17:35:38.128Z,52.04
2023-05-10T17:38:39.903Z,52.01
2023-05-10T17:41:41.789Z,52.01
2023-05-10T17:44:44.008Z,52.42
2023-05-10T17:47:46.436Z,52.97
2023-05-10T17:50:51.017Z,53.13
2023-05-10T17:53:53.361Z,53.24
2023-05-10T17:56:55.143Z,53.44
2023-05-10T17:59:57.124Z,53.40
2023-05-10T18:02:59.033Z,53.86
2023-05-10T18:06:00.951Z,53.82
2023-05-10T18:09:04.286Z,54.33
2023-05-10T18:12:06.191Z,54.30
2023-05-10T18:15:08.499Z,54.76
2023-05-10T18:18:11.053Z,54.89
2023-05-10T18:21:15.403Z,55.40
2023-05-10T18:24:30.047Z,56.07
2023-05-10T18:27:39.256Z,56.42
2023-05-10T18:30:41.435Z,56.71
2023-05-10T18:33:43.246Z,57.50
2023-05-10T18:36:45.174Z,58.26
2023-05-10T18:39:46.960Z,58.67
2023-05-10T18:42:50.217Z,59.00
2023-05-10T18:45:52.584Z,59.57
2023-05-10T18:48:55.162Z,59.91
2023-05-10T18:51:57.198Z,60.13
2023-05-10T18:54:58.936Z,60.52
2023-05-10T18:58:00.669Z,60.66
2023-05-10T19:01:02.534Z,61.12
2023-05-10T19:04:04.479Z,61.35
2023-05-10T19:07:06.557Z,61.75
2023-05-10T19:10:08.624Z,62.02
2023-05-10T19:13:10.606Z,62.80
2023-05-10T19:16:15.960Z,62.65
2023-05-10T19:19:23.595Z,62.91
2023-05-10T19:22:43.555Z,63.01
2023-05-10T19:25:50.013Z,63.35
2023-05-10T19:28:52.425Z,63.63
2023-05-10T19:31:54.346Z,64.30
2023-05-10T19:34:56.757Z,64.62
2023-05-10T19:37:58.678Z,64.98
2023-05-10T19:41:00.788Z,65.17
2023-05-10T19:44:02.750Z,65.25
2023-05-10T19:47:05.331Z,65.81
2023-05-10T19:50:07.790Z,66.10
2023-05-10T19:53:09.983Z,66.33
2023-05-10T19:56:12.713Z,66.69
2023-05-10T19:59:14.543Z,67.35
2023-05-10T20:02:16.615Z,67.85
2023-05-10T20:05:18.609Z,67.80
2023-05-10T20:08:20.653Z,68.00
2023-05-10T20:11:22.514Z,67.91
2023-05-10T20:14:25.555Z,68.20
2023-05-10T20:17:27.319Z,68.11
2023-05-10T20:20:29.728Z,68.51
2023-05-10T20:23:31.525Z,68.02
2023-05-10T20:26:34.006Z,67.99
2023-05-10T20:29:35.912Z,68.38
2023-05-10T20:32:38.270Z,68.11
2023-05-10T20:35:40.128Z,68.19
2023-05-10T20:38:41.962Z,68.02
2023-05-10T20:41:43.830Z,68.61
2023-05-10T20:44:45.631Z,68.69
2023-05-10T20:47:47.474Z,69.06
2023-05-10T20:50:49.261Z,69.21
2023-05-10T20:53:51.772Z,69.08
2023-05-10T20:56:53.624Z,68.88
2023-05-10T20:59:55.392Z,68.87
2023-05-10T21:02:57.226Z,69.09
2023-05-10T21:05:58.999Z,68.83
2023-05-10T21:09:00.766Z,68.79
2023-05-10T21:12:03.403Z,68.86
2023-05-10T21:15:05.536Z,69.06
2023-05-10T21:18:07.401Z,69.54
2023-05-10T21:21:09.172Z,69.71
2023-05-10T21:24:10.995Z,69.70
2023-05-10T21:27:12.984Z,69.81
2023-05-10T21:30:14.979Z,69.80
2023-05-10T21:33:16.740Z,69.75
2023-05-10T21:36:18.548Z,70.95
2023-05-10T21:39:20.386Z,70.90
2023-05-10T21:42:22.106Z,70.77
2023-05-10T21:45:23.985Z,71.00
2023-05-10T21:48:25.782Z,71.15
2023-05-10T21:51:29.192Z,73.08
2023-05-10T21:54:31.028Z,71.90
2023-05-10T21:57:32.780Z,71.86
2023-05-10T22:00:34.544Z,71.69
2023-05-10T22:03:36.395Z,72.62
2023-05-10T22:06:38.206Z,72.32
2023-05-10T22:09:39.922Z,72.19
2023-05-10T22:12:41.651Z,71.88
2023-05-10T22:15:44.452Z,72.00
2023-05-10T22:18:46.352Z,71.39
2023-05-10T22:21:48.183Z,72.32
2023-05-10T22:24:49.944Z,72.13
2023-05-10T22:27:51.692Z,72.17
2023-05-10T22:30:53.731Z,72.01
2023-05-10T22:33:55.488Z,71.52
2023-05-10T22:36:57.320Z,71.36
2023-05-10T22:39:59.021Z,72.20
2023-05-10T22:43:01.034Z,72.85
2023-05-10T22:46:02.971Z,72.53
2023-05-10T22:49:04.839Z,72.25
2023-05-10T22:52:06.601Z,72.03
2023-05-10T22:55:09.038Z,71.78
2023-05-10T22:58:11.053Z,71.30
2023-05-10T23:01:12.743Z,71.08
2023-05-10T23:04:15.225Z,70.94
2023-05-10T23:07:17.719Z,70.85
2023-05-10T23:10:20.317Z,70.94
2023-05-10T23:13:22.198Z,71.11
2023-05-10T23:16:23.925Z,70.85
2023-05-10T23:19:25.700Z,71.52
2023-05-10T23:22:27.448Z,71.35
2023-05-10T23:25:29.271Z,71.24
2023-05-10T23:28:31.657Z,71.40
2023-05-10T23:31:33.485Z,71.29
2023-05-10T23:34:35.279Z,71.69
2023-05-10T23:37:37.125Z,72.55
2023-05-10T23:40:39.006Z,72.56
2023-05-10T23:43:40.898Z,72.86
2023-05-10T23:46:42.703Z,73.67
2023-05-10T23:49:44.532Z,73.99
2023-05-10T23:52:46.207Z,74.01
2023-05-10T23:55:47.980Z,74.38
2023-05-10T23:58:49.816Z,74.30
